Time;durP1;ratioP1;P1;durP2;ratioP2;P2;SDS_P1;SDS_P2;PMS_P1;PMS_P2;Temp;Humidity;BMP_temperature;BMP_pressure;BME280_temperature;BME280_humidity;BME280_pressure;Samples;Min_cycle;Max_cycle;Signal;HPM_P1;HPM_P2
2022/04/14 00:00:13;;;;;;;6.72;2.28;;;17.10;99.90;;;;;;5035855;28;20032;-88
2022/04/14 00:02:39;;;;;;;5.78;2.33;;;17.10;99.90;;;;;;5053721;28;20467;-88
2022/04/14 00:05:05;;;;;;;4.18;2.03;;;17.10;99.90;;;;;;5053613;28;20021;-88
2022/04/14 00:07:31;;;;;;;5.93;2.08;;;17.10;99.90;;;;;;5036248;28;20032;-89
2022/04/14 00:09:56;;;;;;;7.57;2.10;;;17.00;99.90;;;;;;5053523;28;20021;-88
2022/04/14 00:12:22;;;;;;;5.70;2.15;;;17.00;99.90;;;;;;5035604;28;20112;-88
2022/04/14 00:14:48;;;;;;;6.72;2.30;;;17.00;99.90;;;;;;5053731;28;20087;-88
2022/04/14 00:17:14;;;;;;;6.03;2.10;;;16.90;99.90;;;;;;5035643;28;20083;-88
2022/04/14 00:19:40;;;;;;;4.95;2.10;;;16.90;99.90;;;;;;5053410;28;20025;-88
2022/04/14 00:22:07;;;;;;;6.38;2.20;;;16.90;99.90;;;;;;5053185;28;20057;-88
2022/04/14 00:24:33;;;;;;;3.50;2.13;;;16.90;99.90;;;;;;5035346;28;20477;-88
2022/04/14 00:26:59;;;;;;;7.32;1.95;;;16.80;99.90;;;;;;5053277;28;20035;-88
2022/04/14 00:29:24;;;;;;;9.23;2.40;;;16.80;99.90;;;;;;5035357;28;20017;-88
2022/04/14 00:31:50;;;;;;;5.63;2.10;;;16.80;99.90;;;;;;5053217;28;20388;-88
2022/04/14 00:34:16;;;;;;;8.40;2.28;;;16.80;99.90;;;;;;5035329;28;20060;-88
2022/04/14 00:36:42;;;;;;;6.90;2.13;;;16.70;99.90;;;;;;5035242;28;20115;-88
2022/04/14 00:39:09;;;;;;;6.20;1.98;;;16.70;99.90;;;;;;5034505;28;20021;-88
2022/04/14 00:41:37;;;;;;;5.63;2.00;;;16.70;99.90;;;;;;5035192;28;20120;-88
2022/04/14 00:44:03;;;;;;;3.72;2.15;;;16.70;99.90;;;;;;5035049;28;20035;-88
2022/04/14 00:46:28;;;;;;;5.35;2.22;;;16.70;99.90;;;;;;5035170;28;20476;-88
2022/04/14 00:48:54;;;;;;;5.50;2.10;;;16.60;99.90;;;;;;5036086;28;20028;-88
2022/04/14 00:51:20;;;;;;;5.57;2.03;;;16.60;99.90;;;;;;5034987;28;20562;-89
2022/04/14 00:53:47;;;;;;;5.88;1.98;;;16.60;99.90;;;;;;5035017;28;20021;-88
2022/04/14 00:56:12;;;;;;;10.57;2.08;;;16.50;99.90;;;;;;5052966;28;20021;-89
2022/04/14 00:58:40;;;;;;;5.13;2.25;;;16.60;99.90;;;;;;5035096;28;20480;-88
2022/04/14 01:01:07;;;;;;;9.23;2.28;;;16.50;99.90;;;;;;5052929;28;20384;-89
2022/04/14 01:03:33;;;;;;;6.55;1.88;;;16.50;99.90;;;;;;5034896;28;20141;-88
2022/04/14 01:06:00;;;;;;;9.65;2.10;;;16.50;99.90;;;;;;5034939;28;20112;-89
2022/04/14 01:08:30;;;;;;;5.43;2.47;;;16.40;99.90;;;;;;5034968;28;20066;-88
2022/04/14 01:10:57;;;;;;;5.18;2.00;;;16.40;99.90;;;;;;5052877;28;20120;-88
2022/04/14 01:13:22;;;;;;;4.97;2.20;;;16.40;99.90;;;;;;5034917;28;20021;-88
2022/04/14 01:15:49;;;;;;;5.28;2.00;;;16.40;99.90;;;;;;5052679;28;20036;-89
2022/04/14 01:18:15;;;;;;;4.55;1.60;;;16.40;99.90;;;;;;5034952;28;20111;-89
2022/04/14 01:20:42;;;;;;;7.93;2.30;;;16.30;99.90;;;;;;5034787;28;20049;-89
2022/04/14 01:23:10;;;;;;;5.78;2.05;;;16.30;99.90;;;;;;5034884;28;20029;-89
2022/04/14 01:25:37;;;;;;;5.28;2.13;;;16.30;99.90;;;;;;5034660;28;20096;-88
2022/04/14 01:28:05;;;;;;;7.53;2.30;;;16.30;99.90;;;;;;5034771;28;20017;-88
2022/04/14 01:30:31;;;;;;;6.63;2.28;;;16.20;99.90;;;;;;5035053;28;20028;-88
2022/04/14 01:32:57;;;;;;;4.03;1.80;;;16.30;99.90;;;;;;5034681;28;20031;-89
2022/04/14 01:35:23;;;;;;;3.63;2.20;;;16.30;99.90;;;;;;5034729;28;20443;-89
2022/04/14 01:37:49;;;;;;;6.05;2.00;;;16.20;99.90;;;;;;5034719;28;20028;-88
2022/04/14 01:40:15;;;;;;;6.03;2.40;;;16.20;99.90;;;;;;5052609;28;20028;-88
2022/04/14 01:42:41;;;;;;;6.60;2.13;;;16.20;99.90;;;;;;5034565;28;20111;-89
2022/04/14 01:45:10;;;;;;;6.70;2.20;;;16.20;99.90;;;;;;5034513;28;20055;-89
2022/04/14 01:47:44;;;;;;;4.82;1.80;;;16.10;99.90;;;;;;5052438;28;20472;-89
2022/04/14 01:50:12;;;;;;;8.60;2.00;;;16.10;99.90;;;;;;5036211;28;20021;-89
2022/04/14 01:52:39;;;;;;;5.78;2.10;;;16.10;99.90;;;;;;5056130;28;20021;-89
2022/04/14 01:55:06;;;;;;;8.05;2.10;;;16.10;99.90;;;;;;5056287;28;20032;-88
2022/04/14 01:57:31;;;;;;;3.42;1.92;;;16.00;99.90;;;;;;5056300;28;20029;-88
2022/04/14 01:59:58;;;;;;;6.00;2.42;;;16.00;99.90;;;;;;5038017;28;20476;-88
2022/04/14 02:02:24;;;;;;;3.75;1.80;;;16.00;99.90;;;;;;5055923;28;20029;-88
2022/04/14 02:04:51;;;;;;;9.10;2.25;;;16.00;99.90;;;;;;5037869;28;20365;-88
2022/04/14 02:07:17;;;;;;;5.78;2.05;;;16.00;99.90;;;;;;5055855;28;20117;-88
2022/04/14 02:09:43;;;;;;;4.43;2.00;;;16.00;99.90;;;;;;5055860;28;20021;-88
2022/04/14 02:12:11;;;;;;;5.47;2.10;;;15.90;99.90;;;;;;5037852;28;20036;-88
2022/04/14 02:14:38;;;;;;;6.75;2.45;;;15.90;99.90;;;;;;5037928;28;20025;-89
2022/04/14 02:17:04;;;;;;;5.25;2.20;;;15.90;99.90;;;;;;5037784;28;20036;-88
2022/04/14 02:19:30;;;;;;;4.97;2.10;;;15.90;99.90;;;;;;5037655;28;20021;-89
2022/04/14 02:21:58;;;;;;;4.43;1.77;;;15.90;99.90;;;;;;5037493;28;20107;-89
2022/04/14 02:24:25;;;;;;;7.07;2.25;;;15.80;99.90;;;;;;5037626;28;20479;-89
2022/04/14 02:26:51;;;;;;;5.90;2.17;;;15.90;99.90;;;;;;5037651;28;20045;-88
2022/04/14 02:29:16;;;;;;;3.90;1.80;;;15.80;99.90;;;;;;5037662;28;20032;-88
2022/04/14 02:31:42;;;;;;;5.45;2.15;;;15.80;99.90;;;;;;5055449;28;20037;-89
2022/04/14 02:34:08;;;;;;;4.60;1.88;;;15.80;99.90;;;;;;5037482;28;20021;-89
2022/04/14 02:36:33;;;;;;;5.30;2.00;;;15.70;99.90;;;;;;5055408;28;20044;-89
2022/04/14 02:38:59;;;;;;;6.78;2.50;;;15.80;99.90;;;;;;5037395;28;20028;-89
2022/04/14 02:41:24;;;;;;;5.75;2.17;;;15.70;99.90;;;;;;5037416;28;20112;-88
2022/04/14 02:43:50;;;;;;;4.88;2.13;;;15.70;99.90;;;;;;5055057;28;20494;-88
2022/04/14 02:46:16;;;;;;;4.47;1.65;;;15.70;99.90;;;;;;5037842;28;20407;-89
2022/04/14 02:48:41;;;;;;;5.28;2.15;;;15.70;99.90;;;;;;5055190;28;20029;-89
2022/04/14 02:51:07;;;;;;;4.55;1.92;;;15.70;99.90;;;;;;5055037;28;20380;-89
2022/04/14 02:53:33;;;;;;;6.30;2.38;;;15.60;99.90;;;;;;5037199;28;20433;-89
2022/04/14 02:55:59;;;;;;;8.27;2.28;;;15.60;99.90;;;;;;5037189;28;20411;-88
2022/04/14 02:58:25;;;;;;;7.47;1.90;;;15.60;99.90;;;;;;5037282;28;20025;-88
2022/04/14 03:00:51;;;;;;;5.72;2.13;;;15.60;99.90;;;;;;5036310;28;20026;-89
2022/04/14 03:03:17;;;;;;;4.10;2.20;;;15.60;99.90;;;;;;5036657;28;20043;-89
2022/04/14 03:05:44;;;;;;;8.18;2.53;;;15.60;99.90;;;;;;5036970;28;20435;-89
2022/04/14 03:08:09;;;;;;;6.85;2.30;;;15.50;99.90;;;;;;5037417;28;20476;-89
2022/04/14 03:10:35;;;;;;;7.55;2.17;;;15.50;99.90;;;;;;5037394;28;20155;-89
2022/04/14 03:13:01;;;;;;;5.32;2.08;;;15.50;99.90;;;;;;5036860;28;20017;-89
2022/04/14 03:15:26;;;;;;;5.45;2.40;;;15.50;99.90;;;;;;5054642;28;20444;-89
2022/04/14 03:17:53;;;;;;;4.60;2.60;;;15.50;99.90;;;;;;5036797;28;20476;-89
2022/04/14 03:20:19;;;;;;;9.43;2.20;;;15.50;99.90;;;;;;5054410;28;20025;-89
2022/04/14 03:22:44;;;;;;;5.95;2.05;;;15.50;99.90;;;;;;5054778;28;20044;-89
2022/04/14 03:25:11;;;;;;;7.15;2.45;;;15.50;99.90;;;;;;5054296;28;20361;-89
2022/04/14 03:27:37;;;;;;;7.38;2.47;;;15.40;99.90;;;;;;5036495;28;20025;-88
2022/04/14 03:30:04;;;;;;;4.10;2.22;;;15.40;99.90;;;;;;5054329;28;20071;-89
2022/04/14 03:32:30;;;;;;;5.97;2.42;;;15.40;99.90;;;;;;5036370;28;20108;-89
2022/04/14 03:34:56;;;;;;;6.55;2.45;;;15.40;99.90;;;;;;5054663;28;20520;-89
2022/04/14 03:37:22;;;;;;;5.78;2.42;;;15.40;99.90;;;;;;5036244;28;20029;-88
2022/04/14 03:39:48;;;;;;;9.35;2.83;;;15.40;99.90;;;;;;5036219;28;20032;-89
2022/04/14 03:42:14;;;;;;;8.10;3.33;;;15.40;99.90;;;;;;5036262;28;20025;-89
2022/04/14 03:44:40;;;;;;;6.60;3.15;;;15.30;99.90;;;;;;5036120;28;20032;-89
2022/04/14 03:47:06;;;;;;;8.13;2.95;;;15.30;99.90;;;;;;5053964;28;20017;-89
2022/04/14 03:49:31;;;;;;;6.68;2.88;;;15.30;99.90;;;;;;5035997;28;20032;-89
2022/04/14 03:51:57;;;;;;;9.07;2.97;;;15.30;99.90;;;;;;5035980;28;20389;-89
2022/04/14 03:54:23;;;;;;;5.95;3.28;;;15.30;99.90;;;;;;5035966;28;20025;-89
2022/04/14 03:56:48;;;;;;;6.90;2.70;;;15.20;99.90;;;;;;5036000;28;20040;-89
2022/04/14 03:59:15;;;;;;;7.53;3.40;;;15.20;99.90;;;;;;5053758;28;20025;-89
2022/04/14 04:01:41;;;;;;;10.52;4.03;;;15.30;99.90;;;;;;5035800;28;20115;-89
2022/04/14 04:04:06;;;;;;;8.23;4.28;;;15.20;99.90;;;;;;5035872;28;20175;-89
2022/04/14 04:06:32;;;;;;;6.90;3.50;;;15.20;99.90;;;;;;5035837;28;20500;-89
2022/04/14 04:08:58;;;;;;;9.98;3.85;;;15.20;99.90;;;;;;5053611;28;20021;-89
2022/04/14 04:11:24;;;;;;;8.50;4.20;;;15.20;99.90;;;;;;5035666;28;20017;-89
2022/04/14 04:13:49;;;;;;;10.77;4.20;;;15.20;99.90;;;;;;5035522;28;20111;-89
2022/04/14 04:16:15;;;;;;;10.60;4.47;;;15.10;99.90;;;;;;5053813;28;20081;-89
2022/04/14 04:18:40;;;;;;;11.63;5.10;;;15.10;99.90;;;;;;5035703;28;20384;-89
2022/04/14 04:21:06;;;;;;;8.88;4.68;;;15.10;99.90;;;;;;5053639;28;20045;-89
2022/04/14 04:23:32;;;;;;;15.00;5.40;;;15.10;99.90;;;;;;5035569;28;20021;-89
2022/04/14 04:25:57;;;;;;;10.13;4.97;;;15.10;99.90;;;;;;5035444;28;20028;-89
2022/04/14 04:28:30;;;;;;;11.00;5.25;;;15.10;99.90;;;;;;5053293;28;20510;-89
2022/04/14 04:30:56;;;;;;;10.73;6.07;;;15.10;99.90;;;;;;5035455;28;20392;-89
2022/04/14 04:33:22;;;;;;;8.82;4.97;;;15.00;99.90;;;;;;5035357;28;20116;-89
2022/04/14 04:35:50;;;;;;;8.80;5.32;;;15.00;99.90;;;;;;5035415;28;20061;-89
2022/04/14 04:38:15;;;;;;;9.25;4.65;;;15.10;99.90;;;;;;5035373;28;20482;-89
2022/04/14 04:40:41;;;;;;;12.00;5.43;;;15.00;99.90;;;;;;5053159;28;20025;-89
2022/04/14 04:43:08;;;;;;;10.15;5.90;;;15.00;99.90;;;;;;5035547;28;20029;-88
2022/04/14 04:45:35;;;;;;;10.23;5.93;;;15.00;99.90;;;;;;5035160;28;20226;-89
2022/04/14 04:48:02;;;;;;;13.73;6.88;;;15.00;99.90;;;;;;5035136;28;20050;-89
2022/04/14 04:50:28;;;;;;;11.82;6.13;;;15.00;99.90;;;;;;5053259;28;20356;-89
2022/04/14 04:52:54;;;;;;;10.30;6.60;;;14.90;99.90;;;;;;5035158;28;20111;-89
2022/04/14 04:55:19;;;;;;;11.70;8.73;;;14.90;99.90;;;;;;5035041;28;20047;-89
2022/04/14 04:57:45;;;;;;;17.55;8.23;;;14.90;99.90;;;;;;5035089;28;20021;-89
2022/04/14 05:00:11;;;;;;;15.48;8.65;;;14.90;99.90;;;;;;5035106;28;20039;-89
2022/04/14 05:02:37;;;;;;;14.73;8.20;;;14.90;99.90;;;;;;5052942;28;20037;-89
2022/04/14 05:05:03;;;;;;;12.65;8.55;;;14.90;99.90;;;;;;5035002;28;20369;-89
2022/04/14 05:07:29;;;;;;;12.75;7.93;;;14.90;99.90;;;;;;5052936;28;20121;-89
2022/04/14 05:09:55;;;;;;;13.18;7.75;;;14.90;99.90;;;;;;5034987;28;20021;-89
2022/04/14 05:12:20;;;;;;;14.85;7.50;;;14.90;99.90;;;;;;5035057;28;20023;-89
2022/04/14 05:14:46;;;;;;;19.80;10.02;;;14.90;99.90;;;;;;5052919;28;20051;-89
2022/04/14 05:17:12;;;;;;;11.48;7.10;;;14.90;99.90;;;;;;5052782;28;20031;-89
2022/04/14 05:19:37;;;;;;;15.70;8.80;;;14.90;99.90;;;;;;5052757;28;20056;-89
2022/04/14 05:22:03;;;;;;;10.25;6.93;;;14.80;99.90;;;;;;5034783;28;20049;-89
2022/04/14 05:24:30;;;;;;;14.65;7.32;;;14.90;99.90;;;;;;5035518;28;20036;-89
2022/04/14 05:26:56;;;;;;;16.27;7.82;;;14.80;99.90;;;;;;5038845;28;20021;-89
2022/04/14 05:29:21;;;;;;;13.30;7.60;;;14.80;99.90;;;;;;5038747;28;20037;-89
2022/04/14 05:31:47;;;;;;;13.13;7.30;;;14.80;99.90;;;;;;5056706;28;20589;-89
2022/04/14 05:34:12;;;;;;;11.15;6.60;;;14.80;99.90;;;;;;5056648;28;20025;-89
2022/04/14 05:36:38;;;;;;;15.02;7.25;;;14.80;99.90;;;;;;5039228;28;20121;-89
2022/04/14 05:39:04;;;;;;;12.25;7.63;;;14.80;99.90;;;;;;5056728;28;20036;-89
2022/04/14 05:41:29;;;;;;;13.05;7.90;;;14.80;99.90;;;;;;5038651;28;20040;-89
2022/04/14 05:43:56;;;;;;;14.80;6.68;;;14.80;99.90;;;;;;5038468;28;20032;-89
2022/04/14 05:46:22;;;;;;;14.48;6.80;;;14.80;99.90;;;;;;5038621;28;20029;-89
2022/04/14 05:48:48;;;;;;;14.02;7.50;;;14.80;99.90;;;;;;5038521;28;20035;-89
2022/04/14 05:51:14;;;;;;;16.60;7.32;;;14.80;99.90;;;;;;5038491;28;20017;-89
2022/04/14 05:53:40;;;;;;;11.52;6.70;;;14.80;99.90;;;;;;5038333;28;20017;-89
2022/04/14 05:56:06;;;;;;;9.63;6.38;;;14.80;99.90;;;;;;5038214;28;20036;-88
2022/04/14 05:58:31;;;;;;;11.35;6.72;;;14.80;99.90;;;;;;5055988;28;20041;-89
2022/04/14 06:00:57;;;;;;;10.55;6.28;;;14.80;99.90;;;;;;5038072;28;20472;-89
2022/04/14 06:03:24;;;;;;;11.70;6.63;;;14.80;99.90;;;;;;5038156;28;20028;-89
2022/04/14 06:05:49;;;;;;;12.40;5.95;;;14.80;99.90;;;;;;5037999;28;20032;-89
2022/04/14 06:08:15;;;;;;;10.35;6.20;;;14.80;99.90;;;;;;5055863;28;20472;-89
2022/04/14 06:10:41;;;;;;;10.35;6.05;;;14.80;99.90;;;;;;5055926;28;20021;-89
2022/04/14 06:13:07;;;;;;;9.20;5.80;;;14.80;99.90;;;;;;5037929;28;20530;-89
2022/04/14 06:15:32;;;;;;;9.93;6.45;;;14.80;99.90;;;;;;5037869;28;20116;-89
2022/04/14 06:17:59;;;;;;;8.98;6.07;;;14.80;99.90;;;;;;5055780;28;20076;-89
2022/04/14 06:20:24;;;;;;;11.50;6.07;;;14.80;99.90;;;;;;5037575;28;20492;-89
2022/04/14 06:22:52;;;;;;;9.77;5.60;;;14.80;99.90;;;;;;5037779;28;20029;-89
2022/04/14 06:25:22;;;;;;;11.77;6.22;;;14.80;99.90;;;;;;5037700;28;20078;-90
2022/04/14 06:27:48;;;;;;;12.23;6.93;;;14.90;99.90;;;;;;5037637;28;20116;-89
2022/04/14 06:30:15;;;;;;;9.77;5.95;;;14.80;99.90;;;;;;5037447;28;20028;-90
2022/04/14 06:32:41;;;;;;;9.55;5.40;;;14.80;99.90;;;;;;5037539;28;20024;-89
2022/04/14 06:35:12;;;;;;;13.15;5.55;;;14.90;99.90;;;;;;5037391;28;20029;-89
2022/04/14 06:37:38;;;;;;;10.90;6.05;;;14.90;99.90;;;;;;5036508;28;20082;-89
2022/04/14 06:40:04;;;;;;;9.23;5.93;;;14.90;99.90;;;;;;5037471;28;20025;-89
2022/04/14 06:42:29;;;;;;;12.60;5.97;;;14.90;99.90;;;;;;5055171;28;20029;-89
2022/04/14 06:44:59;;;;;;;9.43;5.82;;;14.90;99.90;;;;;;5037389;28;20365;-89
2022/04/14 06:47:26;;;;;;;9.73;5.13;;;14.90;99.90;;;;;;5037337;28;20025;-89
2022/04/14 06:49:52;;;;;;;10.73;6.05;;;14.90;99.90;;;;;;5037175;28;20024;-89
2022/04/14 06:52:18;;;;;;;12.63;6.03;;;14.90;99.90;;;;;;5055139;28;20017;-89
2022/04/14 06:54:44;;;;;;;11.20;5.03;;;15.00;99.90;;;;;;5037080;28;20384;-89
2022/04/14 06:57:09;;;;;;;10.35;5.68;;;15.00;99.90;;;;;;5037190;28;20448;-89
2022/04/14 06:59:35;;;;;;;9.15;5.30;;;15.00;99.90;;;;;;5036996;28;20068;-89
2022/04/14 07:02:01;;;;;;;11.70;5.32;;;15.00;99.90;;;;;;5037064;28;20060;-87
2022/04/14 07:04:27;;;;;;;7.28;5.00;;;15.00;99.90;;;;;;5037185;28;20028;-89
2022/04/14 07:06:53;;;;;;;7.40;4.95;;;15.00;99.90;;;;;;5055107;28;20198;-89
2022/04/14 07:09:20;;;;;;;11.15;5.75;;;15.10;99.90;;;;;;5037032;28;20025;-89
2022/04/14 07:11:45;;;;;;;10.80;5.97;;;15.10;99.90;;;;;;5036944;28;20488;-89
2022/04/14 07:14:11;;;;;;;12.82;6.00;;;15.10;99.90;;;;;;5036804;28;20021;-89
2022/04/14 07:16:37;;;;;;;9.63;5.53;;;15.10;99.90;;;;;;5037581;28;20056;-90
2022/04/14 07:19:02;;;;;;;7.90;4.18;;;15.10;99.90;;;;;;5036684;28;20025;-89
2022/04/14 07:21:28;;;;;;;9.63;4.40;;;15.20;99.90;;;;;;5036494;28;20404;-90
2022/04/14 07:23:54;;;;;;;7.38;4.70;;;15.20;99.90;;;;;;5037038;28;20515;-89
2022/04/14 07:26:19;;;;;;;10.40;4.78;;;15.20;99.90;;;;;;5036580;28;20022;-89
2022/04/14 07:28:45;;;;;;;12.55;4.95;;;15.20;99.90;;;;;;5036608;28;20021;-89
2022/04/14 07:31:11;;;;;;;10.63;5.10;;;15.20;99.90;;;;;;5054631;28;20048;-89
2022/04/14 07:33:36;;;;;;;8.90;4.45;;;15.30;99.90;;;;;;5036577;28;20083;-89
2022/04/14 07:36:03;;;;;;;9.27;4.38;;;15.30;99.90;;;;;;5036541;28;20082;-89
2022/04/14 07:38:28;;;;;;;5.75;4.22;;;15.30;99.90;;;;;;5036415;28;20029;-89
2022/04/14 07:40:56;;;;;;;9.18;4.40;;;15.40;99.90;;;;;;5054223;28;20021;-89
2022/04/14 07:43:22;;;;;;;7.90;4.78;;;15.40;99.90;;;;;;5036182;28;20082;-88
2022/04/14 07:45:48;;;;;;;9.98;4.63;;;15.40;99.90;;;;;;5036227;28;20057;-88
2022/04/14 07:48:16;;;;;;;6.45;4.40;;;15.50;99.90;;;;;;5035766;28;20025;-89
2022/04/14 07:50:42;;;;;;;7.10;4.40;;;15.50;99.90;;;;;;5036245;28;20392;-88
2022/04/14 07:53:08;;;;;;;7.82;4.30;;;15.50;99.90;;;;;;5054169;28;20013;-88
2022/04/14 07:55:35;;;;;;;7.97;3.78;;;15.50;99.90;;;;;;5035990;28;20476;-88
2022/04/14 07:58:09;;;;;;;5.75;3.40;;;15.60;99.90;;;;;;5036472;28;20021;-89
2022/04/14 08:00:36;;;;;;;10.90;4.55;;;15.60;99.90;;;;;;5036608;28;20039;-89
2022/04/14 08:03:02;;;;;;;4.85;3.63;;;15.60;99.90;;;;;;5036236;28;20504;-89
2022/04/14 08:05:35;;;;;;;6.63;3.72;;;15.60;99.90;;;;;;5053839;28;20033;-88
2022/04/14 08:08:02;;;;;;;8.07;4.28;;;15.60;99.90;;;;;;5035879;28;20502;-89
2022/04/14 08:10:28;;;;;;;8.15;4.85;;;15.60;99.90;;;;;;5035957;28;20056;-89
2022/04/14 08:12:54;;;;;;;7.68;4.53;;;15.70;99.90;;;;;;5035891;28;20067;-89
2022/04/14 08:15:20;;;;;;;8.07;4.10;;;15.70;99.90;;;;;;5035910;28;20031;-89
2022/04/14 08:17:46;;;;;;;8.63;4.38;;;15.70;99.90;;;;;;5035717;28;20029;-90
2022/04/14 08:20:13;;;;;;;11.23;4.22;;;15.80;99.90;;;;;;5053942;28;20051;-89
2022/04/14 08:22:54;;;;;;;7.65;4.60;;;15.80;99.90;;;;;;5016120;28;20045;-89
2022/04/14 08:25:30;;;;;;;6.50;3.90;;;15.80;99.90;;;;;;5015824;28;20036;-89
2022/04/14 08:28:00;;;;;;;9.52;3.90;;;15.90;99.90;;;;;;5016253;28;20072;-89
2022/04/14 08:30:26;;;;;;;6.53;3.80;;;15.90;99.90;;;;;;5033912;28;20022;-89
2022/04/14 08:32:54;;;;;;;6.05;3.70;;;15.90;99.90;;;;;;5016065;28;20041;-89
2022/04/14 08:35:20;;;;;;;6.88;3.83;;;16.00;99.90;;;;;;5016068;28;20030;-89
2022/04/14 08:37:47;;;;;;;8.38;4.13;;;16.00;99.90;;;;;;5015956;28;20396;-90
2022/04/14 08:40:14;;;;;;;9.85;3.92;;;16.00;99.90;;;;;;5033512;28;20033;-89
2022/04/14 08:43:01;;;;;;;6.72;3.70;;;16.00;99.90;;;;;;5033577;28;20484;-89
2022/04/14 08:45:31;;;;;;;8.32;4.60;;;16.10;99.90;;;;;;5033631;28;20049;-89
2022/04/14 08:47:59;;;;;;;6.45;3.78;;;16.10;99.90;;;;;;5015986;28;20025;-89
2022/04/14 08:50:25;;;;;;;9.85;4.30;;;16.10;99.90;;;;;;5033527;28;20496;-89
2022/04/14 08:52:52;;;;;;;8.68;4.03;;;16.20;99.90;;;;;;5015939;28;20029;-89
2022/04/14 08:55:18;;;;;;;5.80;3.58;;;16.20;99.90;;;;;;5015664;28;20111;-89
2022/04/14 08:57:44;;;;;;;8.48;4.20;;;16.20;99.90;;;;;;5033573;28;20487;-89
2022/04/14 09:00:13;;;;;;;6.05;3.85;;;16.20;99.90;;;;;;5015525;28;20385;-89
2022/04/14 09:02:43;;;;;;;7.63;4.13;;;16.30;99.90;;;;;;5015884;28;20119;-90
2022/04/14 09:05:09;;;;;;;30.95;11.88;;;16.30;99.90;;;;;;5016211;28;20107;-87
2022/04/14 09:07:35;;;;;;;20.02;10.93;;;17.10;99.90;;;;;;5033140;28;20025;-89
2022/04/14 09:10:01;;;;;;;24.70;11.70;;;17.20;99.90;;;;;;5033203;28;20040;-89
2022/04/14 09:12:27;;;;;;;19.40;10.07;;;17.20;99.90;;;;;;5015727;28;20029;-89
2022/04/14 09:14:53;;;;;;;21.52;10.90;;;17.10;99.90;;;;;;5015438;28;20511;-89
2022/04/14 09:17:19;;;;;;;24.08;10.52;;;17.00;99.90;;;;;;5015561;28;20128;-89
2022/04/14 09:19:44;;;;;;;17.60;10.23;;;16.90;99.90;;;;;;5033060;28;20063;-89
2022/04/14 09:22:14;;;;;;;20.63;9.20;;;16.90;99.90;;;;;;5015460;28;20045;-90
2022/04/14 09:24:40;;;;;;;18.52;9.70;;;16.80;99.90;;;;;;5015389;28;20374;-89
2022/04/14 09:27:06;;;;;;;15.57;9.13;;;16.80;99.90;;;;;;5015561;28;20027;-88
2022/04/14 09:29:32;;;;;;;18.10;9.00;;;16.80;99.90;;;;;;5015466;28;20056;-89
2022/04/14 09:31:58;;;;;;;15.82;8.38;;;16.80;99.90;;;;;;5015628;28;20026;-89
2022/04/14 09:34:50;;;;;;;16.50;8.77;;;16.80;99.90;;;;;;5015586;28;20430;-89
2022/04/14 09:37:15;;;;;;;14.00;7.40;;;16.80;99.90;;;;;;5015517;28;20037;-89
2022/04/14 09:39:55;;;;;;;11.00;7.30;;;16.80;99.90;;;;;;5015508;28;20410;-89
2022/04/14 09:42:23;;;;;;;13.68;7.03;;;16.80;99.90;;;;;;5015459;28;20415;-89
2022/04/14 09:44:51;;;;;;;11.07;6.30;;;16.80;99.90;;;;;;5032903;28;20108;-89
2022/04/14 09:47:46;;;;;;;10.40;6.85;;;16.90;99.90;;;;;;5015422;28;20022;-89
2022/04/14 09:50:34;;;;;;;12.35;6.95;;;16.90;99.90;;;;;;4999133;28;20033;-89
2022/04/14 09:53:02;;;;;;;11.68;6.60;;;16.90;99.90;;;;;;5032858;28;20075;-89
2022/04/14 09:55:29;;;;;;;10.35;6.45;;;16.90;99.90;;;;;;5032813;28;20029;-89
2022/04/14 09:58:17;;;;;;;12.30;6.50;;;16.90;99.90;;;;;;5015051;28;20389;-89
2022/04/14 10:00:49;;;;;;;11.10;5.65;;;16.90;99.90;;;;;;5015115;28;20080;-89
2022/04/14 10:03:18;;;;;;;12.35;6.10;;;17.00;99.90;;;;;;5014856;28;20060;-89
2022/04/14 10:05:48;;;;;;;8.77;5.78;;;16.90;99.90;;;;;;5032809;28;20061;-89
2022/04/14 10:08:14;;;;;;;9.80;5.50;;;17.00;99.90;;;;;;5014914;28;20389;-89
2022/04/14 10:10:44;;;;;;;8.80;5.57;;;17.00;99.90;;;;;;5015958;28;20498;-89
2022/04/14 10:13:17;;;;;;;11.18;5.88;;;17.00;99.90;;;;;;5018713;28;20018;-89
2022/04/14 10:15:48;;;;;;;13.15;6.35;;;17.10;99.90;;;;;;5018846;28;20028;-89
2022/04/14 10:18:17;;;;;;;10.30;5.18;;;17.10;99.90;;;;;;5018908;28;20485;-86
2022/04/14 10:20:47;;;;;;;9.55;5.35;;;17.10;99.90;;;;;;5018173;28;20054;-90
2022/04/14 10:23:14;;;;;;;11.60;5.35;;;17.10;99.90;;;;;;5018324;28;20079;-89
2022/04/14 10:25:42;;;;;;;9.77;5.18;;;17.10;99.90;;;;;;5018105;28;20057;-89
2022/04/14 10:28:12;;;;;;;8.27;4.97;;;17.10;99.90;;;;;;5035816;28;20041;-89
2022/04/14 10:30:38;;;;;;;8.15;5.22;;;17.10;99.90;;;;;;5035785;28;20319;-90
2022/04/14 10:33:04;;;;;;;12.18;6.20;;;17.20;99.90;;;;;;5017976;28;20025;-89
2022/04/14 10:35:31;;;;;;;11.45;5.35;;;17.20;99.90;;;;;;5035650;28;20029;-89
2022/04/14 10:38:33;;;;;;;11.07;5.50;;;17.20;99.90;;;;;;5017812;28;20036;-90
2022/04/14 10:41:15;;;;;;;10.15;5.18;;;17.20;99.90;;;;;;5035643;28;20136;-89
2022/04/14 10:43:44;;;;;;;9.15;5.30;;;17.30;99.90;;;;;;5017788;28;20025;-90
2022/04/14 10:46:14;;;;;;;10.27;5.18;;;17.20;99.90;;;;;;5017936;28;20040;-89
2022/04/14 10:48:41;;;;;;;10.68;4.53;;;17.30;99.90;;;;;;5017782;28;20040;-90
2022/04/14 10:51:27;;;;;;;8.25;5.05;;;17.30;99.90;;;;;;5017780;28;20022;-89
2022/04/14 10:54:03;;;;;;;10.02;4.70;;;17.30;99.90;;;;;;5035694;28;20037;-90
2022/04/14 10:56:41;;;;;;;9.23;4.55;;;17.30;99.90;;;;;;5035474;28;20435;-90
2022/04/14 10:59:11;;;;;;;7.88;4.72;;;17.30;99.90;;;;;;5018308;28;20448;-89
2022/04/14 11:01:52;;;;;;;10.73;4.72;;;17.30;99.90;;;;;;5018955;28;20022;-90
2022/04/14 11:04:52;;;;;;;8.60;4.30;;;17.40;99.90;;;;;;5018032;28;20017;-90
2022/04/14 11:07:23;;;;;;;7.18;4.57;;;17.40;99.90;;;;;;5017855;28;20026;-90
2022/04/14 11:09:59;;;;;;;9.35;4.60;;;17.30;99.90;;;;;;5018003;28;20385;-89
2022/04/14 11:12:54;;;;;;;8.60;4.10;;;17.30;99.90;;;;;;5017921;28;20025;-90
2022/04/14 11:15:30;;;;;;;;;;;17.20;99.90;;;;;;5015488;28;20037;-90
2022/04/14 11:18:04;;;;;;;10.73;4.50;;;17.20;99.90;;;;;;5035506;28;20335;-90
2022/04/14 11:20:37;;;;;;;7.22;3.97;;;17.20;99.90;;;;;;5037141;28;20029;-90
2022/04/14 11:23:11;;;;;;;8.30;4.22;;;17.20;99.90;;;;;;5054697;28;20498;-90
2022/04/14 11:25:49;;;;;;;10.50;4.53;;;17.20;99.90;;;;;;5037282;28;20492;-90
2022/04/14 11:28:40;;;;;;;9.73;3.95;;;17.20;99.90;;;;;;5037648;28;20082;-90
2022/04/14 11:31:18;;;;;;;10.35;4.60;;;17.20;99.90;;;;;;5036982;28;20502;-90
2022/04/14 11:33:45;;;;;;;8.57;4.03;;;17.30;99.90;;;;;;5037224;28;20477;-90
2022/04/14 11:36:20;;;;;;;7.55;3.88;;;17.30;99.90;;;;;;5037306;28;20035;-89
2022/04/14 11:38:55;;;;;;;9.40;4.53;;;17.40;99.90;;;;;;5036624;28;20021;-90
2022/04/14 11:41:38;;;;;;;;;;;17.40;99.90;;;;;;5055139;28;20502;-89
2022/04/14 11:44:07;;;;;;;14.20;6.43;;;17.40;99.90;;;;;;5036660;28;20325;-89
2022/04/14 11:46:34;;;;;;;11.82;5.22;;;17.40;99.90;;;;;;5036770;28;20025;-89
2022/04/14 11:49:01;;;;;;;8.55;4.18;;;17.40;99.90;;;;;;5037038;28;20025;-90
2022/04/14 11:51:27;;;;;;;10.32;4.90;;;17.40;99.90;;;;;;5054528;28;20111;-89
2022/04/14 11:53:55;;;;;;;7.65;4.40;;;17.40;99.90;;;;;;5036392;28;20112;-90
2022/04/14 11:56:23;;;;;;;8.40;4.43;;;17.40;99.90;;;;;;5036462;28;20025;-90
2022/04/14 11:58:50;;;;;;;9.48;4.53;;;17.40;99.90;;;;;;5036395;28;20089;-90
2022/04/14 12:01:15;;;;;;;9.57;5.40;;;17.50;99.90;;;;;;5054082;28;20021;-90
2022/04/14 12:03:42;;;;;;;10.13;4.88;;;17.50;99.90;;;;;;5036596;28;20028;-89
2022/04/14 12:06:11;;;;;;;11.02;5.07;;;17.50;99.90;;;;;;5036024;28;20492;-90
2022/04/14 12:08:38;;;;;;;12.05;4.90;;;17.50;99.90;;;;;;5036621;28;20086;-90
2022/04/14 12:11:16;;;;;;;11.00;4.63;;;17.50;99.90;;;;;;5036004;28;20028;-90
2022/04/14 12:13:42;;;;;;;10.02;4.72;;;17.60;99.90;;;;;;5036365;28;20021;-90
2022/04/14 12:16:10;;;;;;;6.43;4.88;;;17.60;99.90;;;;;;5036134;28;20055;-90
2022/04/14 12:18:38;;;;;;;9.10;4.63;;;17.60;99.90;;;;;;5036106;28;20492;-90
2022/04/14 12:21:04;;;;;;;8.90;4.55;;;17.60;99.90;;;;;;5053715;28;20051;-90
2022/04/14 12:23:31;;;;;;;8.75;4.57;;;17.70;99.90;;;;;;5035768;28;20039;-90
2022/04/14 12:25:58;;;;;;;9.35;4.38;;;17.70;99.90;;;;;;5035700;28;20071;-90
2022/04/14 12:28:24;;;;;;;11.77;4.97;;;17.70;99.90;;;;;;5035853;28;20029;-90
2022/04/14 12:30:50;;;;;;;6.65;4.03;;;17.70;99.90;;;;;;5035785;28;20025;-90
2022/04/14 12:33:27;;;;;;;11.85;4.72;;;17.70;99.90;;;;;;5035602;28;20075;-90
2022/04/14 12:36:08;;;;;;;11.38;4.72;;;17.70;99.90;;;;;;5053566;28;20029;-89
2022/04/14 12:38:45;;;;;;;8.65;4.85;;;17.70;99.90;;;;;;5035356;28;20029;-87
2022/04/14 12:41:20;;;;;;;11.48;5.93;;;17.70;99.90;;;;;;5053265;28;20113;-89
2022/04/14 12:43:48;;;;;;;9.10;5.38;;;17.70;99.90;;;;;;5053517;28;20377;-90
2022/04/14 12:46:27;;;;;;;9.57;4.72;;;17.70;99.90;;;;;;5053162;28;20108;-89